createdAt,value
2023-04-20T00:00:58.024Z,8.90
2023-04-20T00:03:26.863Z,9.73
2023-04-20T00:05:57.067Z,9.70
2023-04-20T00:08:24.443Z,9.30
2023-04-20T00:10:53.697Z,9.85
2023-04-20T00:13:20.929Z,9.35
2023-04-20T00:15:47.971Z,8.68
2023-04-20T00:18:15.141Z,8.45
2023-04-20T00:20:42.405Z,8.65
2023-04-20T00:23:09.628Z,8.70
2023-04-20T00:25:36.674Z,8.43
2023-04-20T00:28:04.011Z,8.27
2023-04-20T00:30:31.306Z,8.68
2023-04-20T00:32:58.346Z,9.20
2023-04-20T00:35:25.723Z,8.05
2023-04-20T00:37:52.891Z,8.02
2023-04-20T00:40:20.496Z,8.43
2023-04-20T00:42:47.568Z,8.70
2023-04-20T00:45:14.728Z,8.55
2023-04-20T00:47:43.972Z,9.02
2023-04-20T00:50:11.803Z,8.93
2023-04-20T00:52:41.407Z,8.40
2023-04-20T00:55:08.938Z,8.50
2023-04-20T00:57:38.750Z,8.93
2023-04-20T01:00:07.516Z,8.45
2023-04-20T01:02:35.457Z,8.57
2023-04-20T01:05:04.162Z,9.40
2023-04-20T01:07:31.251Z,8.52
2023-04-20T01:09:58.173Z,9.63
2023-04-20T01:12:25.852Z,8.48
2023-04-20T01:14:53.070Z,9.18
2023-04-20T01:17:20.989Z,8.35
2023-04-20T01:19:49.393Z,9.10
2023-04-20T01:22:22.929Z,8.70
2023-04-20T01:24:49.924Z,8.50
2023-04-20T01:27:17.367Z,8.88
2023-04-20T01:29:47.808Z,8.63
2023-04-20T01:32:15.203Z,8.70
2023-04-20T01:34:42.242Z,8.20
2023-04-20T01:37:09.382Z,8.93
2023-04-20T01:39:40.283Z,8.60
2023-04-20T01:42:07.762Z,8.15
2023-04-20T01:44:34.891Z,9.25
2023-04-20T01:47:04.604Z,8.60
2023-04-20T01:49:33.182Z,8.65
2023-04-20T01:52:02.779Z,9.02
2023-04-20T01:54:32.406Z,8.77
2023-04-20T01:56:59.424Z,7.95
2023-04-20T01:59:26.542Z,8.15
2023-04-20T02:01:53.661Z,8.35
2023-04-20T02:04:21.587Z,7.93
2023-04-20T02:06:48.759Z,8.02
2023-04-20T02:09:16.187Z,7.88
2023-04-20T02:11:43.373Z,8.25
2023-04-20T02:14:10.492Z,7.65
2023-04-20T02:16:37.857Z,7.70
2023-04-20T02:19:05.019Z,8.35
2023-04-20T02:21:32.206Z,7.38
2023-04-20T02:23:59.287Z,7.85
2023-04-20T02:26:28.630Z,8.25
2023-04-20T02:28:56.166Z,8.40
2023-04-20T02:31:26.100Z,7.80
2023-04-20T02:33:53.371Z,7.95
2023-04-20T02:36:20.712Z,7.95
2023-04-20T02:38:47.799Z,7.72
2023-04-20T02:41:15.047Z,8.60
2023-04-20T02:43:44.070Z,8.30
2023-04-20T02:46:11.130Z,7.53
2023-04-20T02:48:38.567Z,8.15
2023-04-20T02:51:05.712Z,8.18
2023-04-20T02:53:33.029Z,8.10
2023-04-20T02:56:00.160Z,7.90
2023-04-20T02:58:29.658Z,8.20
2023-04-20T03:01:03.066Z,7.22
2023-04-20T03:03:33.400Z,8.93
2023-04-20T03:06:00.906Z,9.35
2023-04-20T03:08:28.185Z,8.43
2023-04-20T03:10:55.300Z,8.23
2023-04-20T03:13:22.587Z,8.70
2023-04-20T03:15:49.864Z,8.65
2023-04-20T03:18:16.959Z,8.10
2023-04-20T03:20:43.996Z,8.32
2023-04-20T03:23:11.347Z,8.57
2023-04-20T03:25:38.423Z,8.07
2023-04-20T03:28:07.592Z,8.40
2023-04-20T03:30:37.469Z,9.00
2023-04-20T03:33:04.839Z,8.25
2023-04-20T03:35:32.177Z,8.45
2023-04-20T03:37:59.376Z,8.23
2023-04-20T03:40:29.903Z,8.48
2023-04-20T03:42:56.969Z,9.35
2023-04-20T03:45:24.011Z,8.45
2023-04-20T03:47:51.171Z,8.50
2023-04-20T03:50:18.393Z,8.25
2023-04-20T03:52:45.571Z,9.73
2023-04-20T03:55:12.773Z,8.98
2023-04-20T03:57:39.956Z,8.70
2023-04-20T04:00:08.107Z,9.32
2023-04-20T04:02:37.979Z,9.00
2023-04-20T04:05:06.040Z,9.60
2023-04-20T04:07:33.371Z,10.18
2023-04-20T04:10:00.465Z,9.48
2023-04-20T04:12:27.761Z,10.40
2023-04-20T04:14:54.778Z,11.50
2023-04-20T04:17:21.974Z,10.00
2023-04-20T04:19:49.064Z,10.30
2023-04-20T04:22:16.235Z,10.20
2023-04-20T04:24:44.171Z,9.77
2023-04-20T04:27:14.311Z,9.73
2023-04-20T04:29:42.163Z,9.65
2023-04-20T04:32:09.799Z,11.23
2023-04-20T04:34:39.106Z,10.02
2023-04-20T04:37:06.163Z,10.55
2023-04-20T04:39:33.086Z,10.43
2023-04-20T04:42:00.790Z,10.93
2023-04-20T04:44:28.895Z,9.82
2023-04-20T04:46:56.022Z,9.25
2023-04-20T04:49:25.092Z,10.07
2023-04-20T04:51:52.202Z,9.63
2023-04-20T04:54:19.241Z,10.52
2023-04-20T04:56:46.368Z,9.85
2023-04-20T04:59:13.354Z,10.35
2023-04-20T05:01:40.532Z,10.27
2023-04-20T05:04:08.761Z,10.50
2023-04-20T05:06:35.905Z,11.23
2023-04-20T05:09:03.056Z,11.25
2023-04-20T05:11:30.475Z,9.90
2023-04-20T05:13:57.520Z,10.50
2023-04-20T05:16:24.518Z,10.65
2023-04-20T05:18:51.843Z,10.85
2023-04-20T05:21:19.128Z,11.50
2023-04-20T05:23:46.264Z,11.35
2023-04-20T05:26:13.314Z,12.00
2023-04-20T05:28:40.379Z,11.10
2023-04-20T05:31:08.473Z,10.55
2023-04-20T05:33:35.455Z,10.52
2023-04-20T05:36:02.427Z,9.43
2023-04-20T05:38:29.593Z,9.45
2023-04-20T05:40:57.212Z,9.57
2023-04-20T05:43:24.375Z,10.40
2023-04-20T05:45:51.464Z,9.52
2023-04-20T05:48:18.434Z,9.55
2023-04-20T05:50:45.536Z,10.18
2023-04-20T05:53:12.693Z,8.65
2023-04-20T05:55:39.730Z,9.10
2023-04-20T05:58:07.108Z,9.32
2023-04-20T06:00:34.204Z,11.13
2023-04-20T06:03:01.887Z,10.05
2023-04-20T06:05:31.858Z,9.50
2023-04-20T06:07:58.882Z,9.00
2023-04-20T06:10:26.028Z,9.80
2023-04-20T06:12:53.086Z,9.23
2023-04-20T06:15:22.145Z,9.80
2023-04-20T06:17:49.097Z,10.75
2023-04-20T06:20:19.838Z,10.10
2023-04-20T06:22:47.241Z,8.88
2023-04-20T06:25:15.852Z,8.40
2023-04-20T06:27:43.242Z,8.60
2023-04-20T06:30:11.349Z,9.10
2023-04-20T06:32:40.452Z,8.55
2023-04-20T06:35:08.714Z,7.78
2023-04-20T06:37:36.699Z,7.63
2023-04-20T06:40:10.618Z,7.80
2023-04-20T06:42:39.656Z,8.27
2023-04-20T06:45:09.987Z,7.72
2023-04-20T06:47:39.508Z,7.45
2023-04-20T06:50:10.021Z,7.82
2023-04-20T06:52:41.391Z,7.82
2023-04-20T06:55:08.989Z,7.37
2023-04-20T06:57:38.689Z,8.15
2023-04-20T07:00:11.030Z,7.63
2023-04-20T07:02:50.680Z,7.55
2023-04-20T07:05:20.981Z,8.00
2023-04-20T07:07:48.033Z,7.55
2023-04-20T07:10:15.951Z,7.18
2023-04-20T07:12:44.280Z,7.32
2023-04-20T07:15:11.465Z,7.18
2023-04-20T07:17:38.453Z,6.68
2023-04-20T07:20:07.412Z,7.60
2023-04-20T07:22:36.422Z,7.10
2023-04-20T07:25:05.826Z,7.13
2023-04-20T07:27:36.689Z,7.85
2023-04-20T07:30:06.315Z,7.05
2023-04-20T07:32:35.016Z,7.05
2023-04-20T07:35:02.216Z,7.10
2023-04-20T07:37:32.064Z,7.55
2023-04-20T07:39:59.345Z,7.47
2023-04-20T07:42:29.806Z,6.68
2023-04-20T07:44:56.912Z,7.00
2023-04-20T07:47:23.975Z,6.93
2023-04-20T07:49:51.288Z,7.30
2023-04-20T07:52:20.944Z,7.30
2023-04-20T07:54:47.987Z,7.88
2023-04-20T07:57:15.328Z,7.38
2023-04-20T07:59:44.552Z,7.38
2023-04-20T08:02:14.033Z,7.43
2023-04-20T08:04:41.439Z,6.65
2023-04-20T08:07:08.800Z,6.95
2023-04-20T08:09:36.109Z,7.72
2023-04-20T08:12:03.274Z,7.15
2023-04-20T08:14:30.374Z,6.65
2023-04-20T08:16:57.529Z,7.13
2023-04-20T08:19:26.828Z,6.88
2023-04-20T08:21:54.451Z,7.00
2023-04-20T08:24:23.680Z,7.00
2023-04-20T08:26:50.643Z,8.40
2023-04-20T08:29:17.831Z,7.13
2023-04-20T08:31:44.900Z,6.82
2023-04-20T08:34:12.420Z,7.07
2023-04-20T08:36:39.501Z,7.05
2023-04-20T08:39:09.332Z,7.05
2023-04-20T08:41:36.762Z,7.97
2023-04-20T08:44:03.852Z,8.18
2023-04-20T08:46:31.274Z,7.03
2023-04-20T08:49:01.477Z,6.85
2023-04-20T08:51:29.210Z,7.32
2023-04-20T08:53:57.089Z,7.10
2023-04-20T08:56:44.985Z,6.53
2023-04-20T08:59:14.300Z,7.28
2023-04-20T09:01:42.690Z,7.68
2023-04-20T09:04:36.389Z,7.82
2023-04-20T09:07:06.127Z,7.78
2023-04-20T09:09:33.332Z,8.15
2023-04-20T09:12:07.451Z,7.80
2023-04-20T09:14:46.068Z,9.32
2023-04-20T09:17:15.242Z,8.02
2023-04-20T09:19:44.948Z,8.07
2023-04-20T09:22:12.606Z,7.88
2023-04-20T09:24:42.851Z,7.15
2023-04-20T09:27:18.061Z,7.15
2023-04-20T09:29:56.600Z,7.05
2023-04-20T09:32:28.153Z,7.65
2023-04-20T09:34:57.895Z,6.72
2023-04-20T09:37:25.734Z,6.20
2023-04-20T09:39:56.051Z,7.25
2023-04-20T09:42:25.094Z,6.45
2023-04-20T09:44:52.485Z,6.55
2023-04-20T09:47:19.570Z,6.13
2023-04-20T09:49:47.504Z,6.10
2023-04-20T09:52:20.579Z,5.47
2023-04-20T09:54:47.868Z,5.05
2023-04-20T09:57:15.218Z,5.68
2023-04-20T09:59:47.192Z,5.45
2023-04-20T10:02:14.519Z,5.95
2023-04-20T10:04:53.866Z,5.40
2023-04-20T10:07:26.218Z,5.38
2023-04-20T10:10:08.643Z,6.10
2023-04-20T10:12:50.582Z,6.15
2023-04-20T10:17:45.481Z,6.28
2023-04-20T10:20:27.007Z,6.38
2023-04-20T10:22:55.111Z,5.78
2023-04-20T10:25:27.012Z,6.00
2023-04-20T10:27:59.155Z,5.65
2023-04-20T10:30:28.060Z,5.85
2023-04-20T10:33:04.232Z,6.60
2023-04-20T10:35:43.324Z,6.05
2023-04-20T10:38:12.222Z,6.10
2023-04-20T10:40:39.432Z,6.70
2023-04-20T10:43:21.583Z,6.13
2023-04-20T10:45:49.764Z,6.65
2023-04-20T10:48:18.239Z,6.13
2023-04-20T10:50:46.146Z,5.72
2023-04-20T10:53:23.540Z,5.63
2023-04-20T10:56:00.966Z,5.65
2023-04-20T10:58:28.145Z,5.22
2023-04-20T11:01:00.206Z,5.60
2023-04-20T11:03:32.019Z,5.93
2023-04-20T11:08:38.802Z,5.53
2023-04-20T11:11:06.242Z,5.15
2023-04-20T11:13:35.663Z,5.10
2023-04-20T11:16:11.725Z,6.00
2023-04-20T11:18:53.862Z,5.07
2023-04-20T11:23:51.111Z,6.15
2023-04-20T11:26:18.417Z,6.00
2023-04-20T11:28:56.248Z,6.43
2023-04-20T11:31:24.104Z,4.95
2023-04-20T11:33:51.642Z,5.82
2023-04-20T11:36:23.171Z,6.07
2023-04-20T11:38:50.226Z,5.70
2023-04-20T11:41:17.677Z,5.03
2023-04-20T11:43:45.697Z,6.00
2023-04-20T11:46:17.617Z,5.85
2023-04-20T11:48:45.276Z,5.97
2023-04-20T11:51:12.479Z,5.68
2023-04-20T11:53:39.610Z,5.97
2023-04-20T11:56:07.073Z,6.15
2023-04-20T11:58:34.396Z,5.68
2023-04-20T12:01:01.452Z,5.95
2023-04-20T12:03:28.890Z,5.22
2023-04-20T12:05:56.051Z,5.43
2023-04-20T12:08:24.802Z,5.40
2023-04-20T12:10:51.723Z,5.97
2023-04-20T12:13:18.692Z,5.70
2023-04-20T12:15:45.878Z,5.45
2023-04-20T12:18:12.980Z,6.22
2023-04-20T12:20:40.368Z,5.45
2023-04-20T12:23:07.524Z,5.50
2023-04-20T12:25:34.588Z,5.50
2023-04-20T12:28:06.909Z,5.68
2023-04-20T12:30:35.495Z,5.00
2023-04-20T12:33:04.916Z,5.78
2023-04-20T12:35:32.023Z,5.55
2023-04-20T12:37:59.089Z,5.90
2023-04-20T12:40:26.242Z,5.82
2023-04-20T12:42:53.735Z,5.53
2023-04-20T12:45:21.849Z,6.10
2023-04-20T12:47:49.112Z,5.95
2023-04-20T12:50:16.299Z,4.78
2023-04-20T12:52:43.492Z,5.53
2023-04-20T12:55:11.472Z,5.25
2023-04-20T12:57:38.728Z,4.18
2023-04-20T13:00:06.901Z,4.63
2023-04-20T13:02:34.331Z,5.45
2023-04-20T13:05:01.689Z,5.15
2023-04-20T13:07:29.009Z,5.60
2023-04-20T13:09:56.164Z,6.05
2023-04-20T13:12:26.012Z,5.30
2023-04-20T13:14:53.197Z,4.82
2023-04-20T13:17:20.380Z,4.75
2023-04-20T13:19:48.149Z,4.85
2023-04-20T13:22:18.115Z,5.75
2023-04-20T13:24:46.214Z,5.78
2023-04-20T13:27:14.484Z,4.38
2023-04-20T13:29:41.726Z,4.93
2023-04-20T13:32:09.041Z,5.47
2023-04-20T13:34:36.232Z,5.20
2023-04-20T13:37:03.607Z,4.35
2023-04-20T13:39:30.860Z,4.28
2023-04-20T13:41:58.216Z,4.55
2023-04-20T13:44:27.475Z,3.97
2023-04-20T13:46:56.565Z,4.35
2023-04-20T13:49:23.596Z,4.65
2023-04-20T13:51:50.787Z,3.50
2023-04-20T13:54:18.229Z,4.07
2023-04-20T13:56:45.428Z,4.03
2023-04-20T13:59:12.707Z,5.07
2023-04-20T14:01:42.292Z,4.28
2023-04-20T14:04:10.229Z,4.07
2023-04-20T14:06:38.225Z,4.35
2023-04-20T14:09:05.218Z,3.92
2023-04-20T14:11:32.852Z,4.05
2023-04-20T14:14:00.131Z,4.22
2023-04-20T14:16:27.232Z,4.93
2023-04-20T14:18:54.333Z,6.30
2023-04-20T14:21:21.568Z,8.30
2023-04-20T14:23:53.512Z,8.82
2023-04-20T14:28:48.071Z,5.38
2023-04-20T14:31:16.091Z,4.72
2023-04-20T14:33:44.911Z,4.60
2023-04-20T14:36:12.208Z,7.90
2023-04-20T14:38:39.401Z,5.93
2023-04-20T14:41:06.655Z,5.43
2023-04-20T14:43:34.721Z,5.90
2023-04-20T14:46:05.068Z,4.13
2023-04-20T14:48:32.456Z,4.03
2023-04-20T14:50:59.426Z,4.25
2023-04-20T14:53:26.453Z,4.95
2023-04-20T14:55:53.571Z,4.03
2023-04-20T14:58:21.216Z,4.03
2023-04-20T15:00:51.951Z,3.47
2023-04-20T15:03:19.176Z,3.88
2023-04-20T15:05:47.168Z,3.10
2023-04-20T15:08:14.535Z,3.55
2023-04-20T15:10:41.731Z,3.05
2023-04-20T15:13:08.744Z,3.70
2023-04-20T15:15:47.558Z,3.38
2023-04-20T15:18:16.699Z,3.70
2023-04-20T15:20:44.013Z,4.47
2023-04-20T15:23:11.194Z,4.68
2023-04-20T15:25:38.659Z,4.88
2023-04-20T15:28:05.730Z,5.18
2023-04-20T15:30:33.110Z,5.13
2023-04-20T15:33:05.379Z,5.65
2023-04-20T15:35:35.986Z,4.47
2023-04-20T15:38:03.550Z,4.82
2023-04-20T15:40:30.823Z,5.45
2023-04-20T15:42:57.921Z,5.70
2023-04-20T15:45:25.048Z,5.53
2023-04-20T15:47:56.099Z,5.50
2023-04-20T15:50:23.383Z,4.30
2023-04-20T15:52:52.882Z,3.65
2023-04-20T15:55:20.004Z,4.28
2023-04-20T15:57:47.058Z,3.83
2023-04-20T16:00:14.658Z,4.63
2023-04-20T16:02:42.070Z,4.15
2023-04-20T16:05:12.610Z,3.33
2023-04-20T16:07:39.697Z,3.97
2023-04-20T16:10:07.610Z,3.80
2023-04-20T16:12:34.886Z,3.63
2023-04-20T16:15:02.604Z,4.03
2023-04-20T16:17:29.838Z,3.35
2023-04-20T16:20:06.922Z,3.95
2023-04-20T16:22:34.653Z,3.78
2023-04-20T16:25:01.745Z,3.85
2023-04-20T16:27:28.990Z,3.75
2023-04-20T16:29:56.053Z,3.75
2023-04-20T16:32:23.529Z,4.30
2023-04-20T16:34:50.738Z,3.80
2023-04-20T16:37:17.874Z,3.45
2023-04-20T16:39:45.287Z,4.30
2023-04-20T16:42:16.756Z,4.20
2023-04-20T16:44:44.025Z,4.10
2023-04-20T16:47:11.264Z,4.63
2023-04-20T16:49:38.323Z,5.07
2023-04-20T16:52:05.406Z,5.43
2023-04-20T16:54:32.798Z,5.32
2023-04-20T16:57:01.180Z,5.97
2023-04-20T16:59:28.773Z,6.35
2023-04-20T17:01:56.206Z,6.78
2023-04-20T17:04:24.168Z,6.80
2023-04-20T17:06:51.989Z,6.57
2023-04-20T17:09:19.082Z,7.07
2023-04-20T17:11:46.403Z,7.85
2023-04-20T17:14:13.578Z,7.60
2023-04-20T17:16:40.578Z,7.70
2023-04-20T17:19:07.655Z,8.30
2023-04-20T17:21:34.723Z,7.50
2023-04-20T17:24:01.973Z,7.85
2023-04-20T17:26:29.369Z,7.10
2023-04-20T17:28:59.009Z,8.07
2023-04-20T17:31:28.226Z,8.32
2023-04-20T17:33:55.878Z,8.35
2023-04-20T17:36:23.013Z,8.20
2023-04-20T17:38:49.976Z,8.60
2023-04-20T17:41:19.621Z,10.18
2023-04-20T17:43:46.694Z,9.88
2023-04-20T17:46:14.043Z,10.55
2023-04-20T17:48:41.373Z,10.30
2023-04-20T17:51:08.781Z,11.52
2023-04-20T17:53:35.904Z,10.18
2023-04-20T17:56:02.929Z,10.32
2023-04-20T17:58:29.939Z,10.25
2023-04-20T18:00:57.000Z,10.05
2023-04-20T18:03:24.176Z,11.27
2023-04-20T18:05:52.568Z,11.07
2023-04-20T18:08:23.337Z,11.25
2023-04-20T18:10:50.310Z,11.38
2023-04-20T18:13:17.359Z,10.00
2023-04-20T18:15:44.584Z,10.88
2023-04-20T18:18:12.259Z,10.23
2023-04-20T18:20:41.435Z,9.30
2023-04-20T18:23:08.412Z,8.80
2023-04-20T18:25:35.460Z,8.95
2023-04-20T18:28:02.597Z,9.65
2023-04-20T18:30:29.618Z,9.07
2023-04-20T18:32:56.742Z,8.85
2023-04-20T18:35:25.861Z,9.05
2023-04-20T18:37:55.268Z,9.32
2023-04-20T18:40:22.526Z,9.30
2023-04-20T18:42:49.571Z,9.05
2023-04-20T18:45:17.045Z,9.38
2023-04-20T18:47:44.139Z,8.90
2023-04-20T18:50:11.861Z,8.98
2023-04-20T18:52:39.099Z,9.23
2023-04-20T18:55:07.028Z,9.85
2023-04-20T18:57:34.100Z,9.70
2023-04-20T19:00:01.160Z,8.98
2023-04-20T19:02:28.259Z,9.70
2023-04-20T19:04:55.771Z,8.70
2023-04-20T19:07:22.895Z,9.90
2023-04-20T19:09:50.214Z,9.23
2023-04-20T19:12:17.275Z,9.25
2023-04-20T19:14:44.551Z,10.05
2023-04-20T19:17:12.573Z,9.55
2023-04-20T19:19:39.565Z,8.90
2023-04-20T19:22:06.711Z,8.90
2023-04-20T19:24:34.442Z,10.07
2023-04-20T19:27:02.439Z,9.57
2023-04-20T19:29:32.999Z,10.75
2023-04-20T19:31:59.968Z,10.02
2023-04-20T19:34:27.276Z,9.85
2023-04-20T19:36:54.322Z,9.98
2023-04-20T19:39:21.477Z,10.65
2023-04-20T19:41:48.567Z,9.77
2023-04-20T19:44:17.926Z,10.60
2023-04-20T19:46:45.040Z,9.88
2023-04-20T19:49:12.499Z,10.38
2023-04-20T19:51:39.681Z,10.90
2023-04-20T19:54:06.862Z,10.68
2023-04-20T19:56:34.608Z,10.80
2023-04-20T19:59:04.338Z,10.98
2023-04-20T20:01:31.393Z,11.55
2023-04-20T20:03:58.878Z,11.93
2023-04-20T20:06:28.538Z,11.43
2023-04-20T20:08:55.616Z,11.70
2023-04-20T20:11:24.319Z,12.45
2023-04-20T20:13:52.036Z,10.77
2023-04-20T20:16:19.354Z,11.63
2023-04-20T20:18:48.579Z,12.02
2023-04-20T20:21:24.233Z,11.23
2023-04-20T20:23:51.658Z,10.23
2023-04-20T20:26:19.112Z,10.38
2023-04-20T20:28:46.741Z,9.55
2023-04-20T20:31:14.316Z,9.25
2023-04-20T20:33:49.851Z,11.52
2023-04-20T20:36:20.097Z,9.80
2023-04-20T20:38:53.656Z,10.13
2023-04-20T20:41:21.199Z,10.10
2023-04-20T20:43:50.265Z,11.27
2023-04-20T20:46:24.501Z,10.43
2023-04-20T20:48:51.728Z,10.05
2023-04-20T20:51:18.850Z,10.35
2023-04-20T20:53:46.490Z,10.10
2023-04-20T20:56:13.652Z,9.75
2023-04-20T20:58:43.262Z,9.88
2023-04-20T21:01:10.520Z,9.73
2023-04-20T21:03:37.704Z,10.38
2023-04-20T21:06:05.538Z,9.68
2023-04-20T21:08:34.808Z,9.15
2023-04-20T21:11:04.443Z,9.88
2023-04-20T21:13:31.626Z,9.25
2023-04-20T21:15:58.865Z,8.82
2023-04-20T21:18:25.961Z,9.15
2023-04-20T21:20:53.217Z,10.50
2023-04-20T21:23:20.341Z,9.90
2023-04-20T21:25:47.619Z,9.27
2023-04-20T21:28:21.378Z,9.32
2023-04-20T21:30:50.118Z,8.50
2023-04-20T21:33:28.055Z,9.20
2023-04-20T21:35:56.994Z,9.77
2023-04-20T21:38:25.607Z,9.68
2023-04-20T21:40:52.744Z,10.07
2023-04-20T21:43:19.824Z,8.73
2023-04-20T21:45:47.027Z,10.30
2023-04-20T21:48:14.253Z,10.10
2023-04-20T21:50:41.442Z,9.52
2023-04-20T21:53:08.696Z,9.32
2023-04-20T21:55:36.100Z,9.75
2023-04-20T21:58:03.208Z,10.13
2023-04-20T22:00:30.524Z,9.43
2023-04-20T22:02:57.778Z,8.38
2023-04-20T22:05:26.289Z,9.60
2023-04-20T22:07:53.425Z,8.82
2023-04-20T22:10:20.675Z,8.75
2023-04-20T22:12:47.734Z,9.70
2023-04-20T22:15:15.281Z,9.30
2023-04-20T22:17:50.270Z,9.52
2023-04-20T22:20:19.858Z,9.52
2023-04-20T22:22:47.143Z,8.35
2023-04-20T22:25:16.919Z,9.52
2023-04-20T22:27:44.273Z,9.07
2023-04-20T22:30:11.708Z,8.35
2023-04-20T22:32:38.945Z,9.18
2023-04-20T22:35:07.546Z,8.93
2023-04-20T22:37:35.026Z,9.38
2023-04-20T22:40:02.262Z,8.68
2023-04-20T22:42:29.588Z,8.93
2023-04-20T22:44:56.778Z,8.98
2023-04-20T22:47:23.834Z,8.82
2023-04-20T22:49:52.826Z,9.23
2023-04-20T22:52:19.864Z,8.52
2023-04-20T22:54:49.232Z,9.15
2023-04-20T22:57:18.208Z,8.70
2023-04-20T22:59:45.650Z,8.82
2023-04-20T23:02:12.911Z,9.18
2023-04-20T23:04:40.390Z,8.30
2023-04-20T23:07:08.922Z,8.68
2023-04-20T23:09:41.629Z,9.65
2023-04-20T23:12:10.485Z,8.95
2023-04-20T23:14:42.729Z,8.77
2023-04-20T23:19:38.609Z,8.68
2023-04-20T23:22:09.060Z,9.43
2023-04-20T23:24:36.276Z,8.88
2023-04-20T23:27:03.560Z,8.68
2023-04-20T23:29:30.628Z,8.50
2023-04-20T23:31:57.959Z,9.25
2023-04-20T23:34:25.008Z,8.60
2023-04-20T23:36:53.942Z,8.50
2023-04-20T23:39:21.841Z,9.40
2023-04-20T23:41:48.915Z,8.68
2023-04-20T23:44:16.079Z,8.25
2023-04-20T23:46:43.115Z,9.25
2023-04-20T23:49:10.122Z,9.63
2023-04-20T23:51:37.171Z,8.70
2023-04-20T23:54:04.419Z,8.70
2023-04-20T23:56:33.962Z,8.50
2023-04-20T23:59:03.407Z,8.77
